createdAt,value
2023-05-07T00:00:32.157Z,100604.72
2023-05-07T00:03:03.218Z,100613.19
2023-05-07T00:05:33.876Z,100621.69
2023-05-07T00:08:05.027Z,100616.44
2023-05-07T00:10:37.923Z,100624.91
2023-05-07T00:13:07.483Z,100624.09
2023-05-07T00:15:38.101Z,100618.44
2023-05-07T00:18:08.052Z,100619.25
2023-05-07T00:20:38.276Z,100614.81
2023-05-07T00:23:08.563Z,100620.47
2023-05-07T00:25:40.990Z,100616.84
2023-05-07T00:28:10.940Z,100611.19
2023-05-07T00:30:41.500Z,100618.03
2023-05-07T00:33:11.439Z,100614.38
2023-05-07T00:35:41.447Z,100614.38
2023-05-07T00:38:12.136Z,100615.56
2023-05-07T00:40:45.925Z,100619.59
2023-05-07T00:43:16.629Z,100609.53
2023-05-07T00:45:47.177Z,100610.72
2023-05-07T00:48:18.766Z,100612.25
2023-05-07T00:50:49.787Z,100613.88
2023-05-07T00:53:20.037Z,100616.66
2023-05-07T00:55:53.398Z,100611.34
2023-05-07T00:58:24.746Z,100610.13
2023-05-07T01:00:55.104Z,100607.28
2023-05-07T01:03:25.414Z,100610.06
2023-05-07T01:06:00.526Z,100605.19
2023-05-07T01:08:31.807Z,100604.34
2023-05-07T01:11:05.420Z,100601.09
2023-05-07T01:13:37.116Z,100605.53
2023-05-07T01:16:08.847Z,100607.09
2023-05-07T01:18:39.435Z,100603.44
2023-05-07T01:21:13.986Z,100600.19
2023-05-07T01:23:47.515Z,100592.47
2023-05-07T01:26:17.750Z,100603.34
2023-05-07T01:28:47.855Z,100603.31
2023-05-07T01:31:20.044Z,100597.63
2023-05-07T01:33:53.722Z,100602.84
2023-05-07T01:36:28.542Z,100610.47
2023-05-07T01:39:01.990Z,100610.41
2023-05-07T01:41:32.546Z,100609.97
2023-05-07T01:44:03.887Z,100613.22
2023-05-07T01:46:35.803Z,100613.56
2023-05-07T01:49:06.642Z,100618.41
2023-05-07T01:51:38.141Z,100624.06
2023-05-07T01:54:10.205Z,100618.78
2023-05-07T01:56:40.821Z,100619.19
2023-05-07T01:59:10.797Z,100622.00
2023-05-07T02:01:41.057Z,100626.03
2023-05-07T02:04:11.290Z,100624.78
2023-05-07T02:06:42.035Z,100625.56
2023-05-07T02:09:16.550Z,100625.50
2023-05-07T02:11:49.237Z,100629.94
2023-05-07T02:14:21.788Z,100624.66
2023-05-07T02:16:52.424Z,100629.06
2023-05-07T02:19:22.863Z,100636.72
2023-05-07T02:21:52.979Z,100636.28
2023-05-07T02:24:25.171Z,100626.19
2023-05-07T02:26:55.438Z,100621.31
2023-05-07T02:29:26.453Z,100627.34
2023-05-07T02:31:57.076Z,100629.38
2023-05-07T02:34:27.501Z,100635.38
2023-05-07T02:36:58.171Z,100646.22
2023-05-07T02:39:30.484Z,100650.28
2023-05-07T02:42:00.679Z,100652.25
2023-05-07T02:44:32.823Z,100654.66
2023-05-07T02:47:03.128Z,100658.66
2023-05-07T02:49:32.878Z,100653.03
2023-05-07T02:52:03.660Z,100671.53
2023-05-07T02:54:36.765Z,100672.72
2023-05-07T02:57:07.655Z,100681.59
2023-05-07T02:59:37.959Z,100683.16
2023-05-07T03:02:08.500Z,100692.00
2023-05-07T03:04:39.036Z,100704.47
2023-05-07T03:07:09.820Z,100706.06
2023-05-07T03:09:42.254Z,100718.19
2023-05-07T03:12:12.606Z,100718.53
2023-05-07T03:14:42.982Z,100710.06
2023-05-07T03:17:19.698Z,100712.09
2023-05-07T03:19:50.075Z,100704.81
2023-05-07T03:22:20.708Z,100711.66
2023-05-07T03:24:53.135Z,100711.66
2023-05-07T03:27:23.516Z,100711.19
2023-05-07T03:29:54.041Z,100712.38
2023-05-07T03:32:25.450Z,100716.03
2023-05-07T03:34:55.921Z,100714.38
2023-05-07T03:37:26.062Z,100725.69
2023-05-07T03:39:57.931Z,100720.84
2023-05-07T03:42:28.887Z,100732.94
2023-05-07T03:44:59.311Z,100732.94
2023-05-07T03:47:29.873Z,100735.78
2023-05-07T03:50:00.871Z,100725.28
2023-05-07T03:52:32.400Z,100736.56
2023-05-07T03:55:05.027Z,100730.59
2023-05-07T03:57:35.942Z,100743.47
2023-05-07T04:00:08.223Z,100741.50
2023-05-07T04:02:39.241Z,100743.13
2023-05-07T04:05:11.268Z,100743.56
2023-05-07T04:07:41.918Z,100747.19
2023-05-07T04:10:15.407Z,100752.44
2023-05-07T04:12:46.117Z,100753.28
2023-05-07T04:15:16.735Z,100754.91
2023-05-07T04:17:47.625Z,100758.53
2023-05-07T04:20:20.598Z,100756.53
2023-05-07T04:22:50.911Z,100758.97
2023-05-07T04:25:27.937Z,100759.75
2023-05-07T04:27:58.320Z,100760.59
2023-05-07T04:30:29.230Z,100763.84
2023-05-07T04:33:00.522Z,100762.28
2023-05-07T04:35:31.255Z,100761.53
2023-05-07T04:38:01.460Z,100762.75
2023-05-07T04:40:35.560Z,100762.81
2023-05-07T04:43:08.203Z,100775.78
2023-05-07T04:45:39.477Z,100775.84
2023-05-07T04:48:10.355Z,100779.91
2023-05-07T04:50:40.554Z,100781.97
2023-05-07T04:53:11.219Z,100789.28
2023-05-07T04:55:43.937Z,100789.72
2023-05-07T04:58:15.250Z,100795.81
2023-05-07T05:00:46.686Z,100787.78
2023-05-07T05:03:17.568Z,100787.38
2023-05-07T05:05:50.164Z,100786.63
2023-05-07T05:08:20.860Z,100791.50
2023-05-07T05:10:54.761Z,100791.13
2023-05-07T05:13:25.974Z,100798.81
2023-05-07T05:15:56.664Z,100802.13
2023-05-07T05:18:27.777Z,100806.19
2023-05-07T05:20:58.804Z,100813.09
2023-05-07T05:23:31.284Z,100811.50
2023-05-07T05:26:04.145Z,100815.56
2023-05-07T05:28:34.312Z,100818.84
2023-05-07T05:31:05.259Z,100817.25
2023-05-07T05:33:36.191Z,100823.34
2023-05-07T05:36:08.021Z,100820.56
2023-05-07T05:38:38.820Z,100814.16
2023-05-07T05:41:12.379Z,100821.03
2023-05-07T05:43:43.883Z,100831.94
2023-05-07T05:46:17.061Z,100834.00
2023-05-07T05:48:48.343Z,100837.72
2023-05-07T05:51:18.090Z,100845.78
2023-05-07T05:53:48.215Z,100845.03
2023-05-07T05:56:21.183Z,100849.09
2023-05-07T05:58:51.723Z,100839.44
2023-05-07T06:01:22.856Z,100847.16
2023-05-07T06:03:53.096Z,100851.56
2023-05-07T06:06:23.921Z,100854.41
2023-05-07T06:08:54.333Z,100853.19
2023-05-07T06:11:27.207Z,100849.56
2023-05-07T06:13:57.667Z,100856.41
2023-05-07T06:16:29.359Z,100857.22
2023-05-07T06:18:59.302Z,100869.75
2023-05-07T06:21:30.028Z,100859.25
2023-05-07T06:23:59.960Z,100867.72
2023-05-07T06:26:32.152Z,100870.16
2023-05-07T06:29:02.449Z,100873.38
2023-05-07T06:31:35.274Z,100871.00
2023-05-07T06:34:05.245Z,100872.63
2023-05-07T06:36:35.723Z,100875.06
2023-05-07T06:39:05.920Z,100881.94
2023-05-07T06:41:37.544Z,100882.38
2023-05-07T06:44:09.880Z,100882.81
2023-05-07T06:46:40.027Z,100887.75
2023-05-07T06:49:10.194Z,100882.13
2023-05-07T06:51:41.234Z,100884.16
2023-05-07T06:54:11.932Z,100889.06
2023-05-07T06:56:44.301Z,100889.94
2023-05-07T06:59:14.729Z,100886.31
2023-05-07T07:01:45.071Z,100890.41
2023-05-07T07:04:14.726Z,100900.13
2023-05-07T07:06:45.185Z,100889.25
2023-05-07T07:09:24.036Z,100897.78
2023-05-07T07:11:56.902Z,100897.00
2023-05-07T07:14:27.556Z,100896.22
2023-05-07T07:16:57.949Z,100895.06
2023-05-07T07:19:28.590Z,100892.25
2023-05-07T07:21:59.005Z,100895.56
2023-05-07T07:24:29.484Z,100889.16
2023-05-07T07:27:02.044Z,100901.00
2023-05-07T07:29:32.436Z,100897.44
2023-05-07T07:32:03.196Z,100900.31
2023-05-07T07:34:33.525Z,100902.00
2023-05-07T07:37:06.685Z,100898.44
2023-05-07T07:39:36.619Z,100905.00
2023-05-07T07:42:09.214Z,100899.38
2023-05-07T07:44:40.949Z,100903.50
2023-05-07T07:47:12.156Z,100904.34
2023-05-07T07:49:43.014Z,100894.69
2023-05-07T07:52:13.746Z,100901.63
2023-05-07T07:54:44.325Z,100900.81
2023-05-07T07:57:16.522Z,100913.78
2023-05-07T07:59:47.300Z,100906.09
2023-05-07T08:02:17.714Z,100904.47
2023-05-07T08:04:47.766Z,100909.72
2023-05-07T08:07:20.265Z,100903.66
2023-05-07T08:09:51.276Z,100917.44
2023-05-07T08:12:23.885Z,100906.91
2023-05-07T08:14:54.873Z,100908.94
2023-05-07T08:17:25.545Z,100908.53
2023-05-07T08:19:56.139Z,100907.31
2023-05-07T08:22:26.832Z,100915.81
2023-05-07T08:24:57.312Z,100914.63
2023-05-07T08:27:29.436Z,100916.25
2023-05-07T08:29:59.523Z,100906.13
2023-05-07T08:32:29.924Z,100921.09
2023-05-07T08:35:00.339Z,100908.13
2023-05-07T08:37:30.239Z,100911.38
2023-05-07T08:40:00.842Z,100925.09
2023-05-07T08:42:38.821Z,100917.44
2023-05-07T08:45:13.541Z,100923.47
2023-05-07T08:47:50.013Z,100923.06
2023-05-07T08:50:22.188Z,100924.28
2023-05-07T08:52:52.678Z,100924.28
2023-05-07T08:55:24.505Z,100925.03
2023-05-07T08:57:57.568Z,100934.72
2023-05-07T09:00:28.338Z,100932.66
2023-05-07T09:02:58.407Z,100935.09
2023-05-07T09:05:29.094Z,100926.16
2023-05-07T09:08:02.170Z,100930.19
2023-05-07T09:10:36.873Z,100930.19
2023-05-07T09:13:09.408Z,100921.69
2023-05-07T09:15:40.070Z,100925.31
2023-05-07T09:18:10.230Z,100923.75
2023-05-07T09:20:41.222Z,100922.16
2023-05-07T09:23:12.712Z,100928.25
2023-05-07T09:25:43.158Z,100924.22
2023-05-07T09:28:17.048Z,100923.84
2023-05-07T09:30:46.937Z,100914.16
2023-05-07T09:33:17.653Z,100913.34
2023-05-07T09:35:48.538Z,100909.72
2023-05-07T09:38:23.287Z,100902.47
2023-05-07T09:41:07.326Z,100910.63
2023-05-07T09:43:41.070Z,100911.84
2023-05-07T09:46:15.411Z,100908.22
2023-05-07T09:48:47.316Z,100913.50
2023-05-07T09:51:32.693Z,100910.69
2023-05-07T09:54:04.869Z,100910.75
2023-05-07T09:56:35.904Z,100905.91
2023-05-07T09:59:09.765Z,100903.53
2023-05-07T10:01:45.784Z,100912.88
2023-05-07T10:04:17.892Z,100906.81
2023-05-07T10:06:49.570Z,100913.69
2023-05-07T10:09:23.802Z,100907.25
2023-05-07T10:11:54.786Z,100920.66
2023-05-07T10:14:28.402Z,100915.00
2023-05-07T10:17:00.414Z,100903.69
2023-05-07T10:19:33.383Z,100896.41
2023-05-07T10:22:09.208Z,100904.56
2023-05-07T10:24:41.133Z,100892.41
2023-05-07T10:27:16.632Z,100892.44
2023-05-07T10:30:01.317Z,100905.00
2023-05-07T10:32:43.316Z,100899.75
2023-05-07T10:35:20.740Z,100896.50
2023-05-07T10:37:52.364Z,100897.31
2023-05-07T10:40:24.849Z,100901.41
2023-05-07T10:43:00.843Z,100895.31
2023-05-07T10:45:33.641Z,100896.13
2023-05-07T10:50:49.859Z,100891.69
2023-05-07T10:53:31.559Z,100893.31
2023-05-07T10:56:32.197Z,100887.25
2023-05-07T10:59:44.953Z,100890.88
2023-05-07T11:02:17.486Z,100876.69
2023-05-07T11:04:48.381Z,100888.88
2023-05-07T11:07:33.536Z,100880.38
2023-05-07T11:10:09.508Z,100891.72
2023-05-07T11:12:57.687Z,100880.38
2023-05-07T11:15:49.405Z,100895.34
2023-05-07T11:18:22.270Z,100882.41
2023-05-07T11:21:01.960Z,100883.63
2023-05-07T11:24:12.194Z,100891.72
2023-05-07T11:26:51.218Z,100877.53
2023-05-07T11:29:23.776Z,100884.41
2023-05-07T11:31:55.647Z,100880.38
2023-05-07T11:34:29.163Z,100877.53
2023-05-07T11:37:03.912Z,100879.56
2023-05-07T11:39:38.436Z,100877.94
2023-05-07T11:42:11.170Z,100885.63
2023-05-07T11:44:49.676Z,100879.16
2023-05-07T11:47:22.502Z,100874.69
2023-05-07T11:49:57.404Z,100867.81
2023-05-07T11:52:28.521Z,100875.50
2023-05-07T11:55:01.041Z,100871.84
2023-05-07T11:57:32.165Z,100872.22
2023-05-07T12:00:06.162Z,100869.81
2023-05-07T12:02:36.959Z,100871.00
2023-05-07T12:05:10.701Z,100866.56
2023-05-07T12:07:41.581Z,100864.13
2023-05-07T12:10:14.692Z,100869.78
2023-05-07T12:12:49.004Z,100857.22
2023-05-07T12:15:20.620Z,100860.88
2023-05-07T12:17:52.199Z,100859.25
2023-05-07T12:20:24.552Z,100857.63
2023-05-07T12:22:55.910Z,100851.13
2023-05-07T12:25:26.812Z,100860.84
2023-05-07T12:27:57.550Z,100854.38
2023-05-07T12:30:27.819Z,100855.59
2023-05-07T12:32:58.939Z,100850.31
2023-05-07T12:35:40.992Z,100860.00
2023-05-07T12:38:13.634Z,100853.53
2023-05-07T12:40:46.654Z,100854.75
2023-05-07T12:43:20.829Z,100856.38
2023-05-07T12:45:54.185Z,100860.41
2023-05-07T12:48:25.362Z,100862.47
2023-05-07T12:50:58.023Z,100851.91
2023-05-07T12:53:30.669Z,100860.00
2023-05-07T12:56:02.997Z,100855.16
2023-05-07T12:58:37.995Z,100864.03
2023-05-07T13:01:12.501Z,100850.28
2023-05-07T13:03:43.254Z,100852.31
2023-05-07T13:06:15.779Z,100851.47
2023-05-07T13:08:46.660Z,100859.19
2023-05-07T13:11:17.495Z,100858.38
2023-05-07T13:13:48.001Z,100862.41
2023-05-07T13:18:52.433Z,100854.72
2023-05-07T13:21:24.114Z,100859.56
2023-05-07T13:23:54.869Z,100861.97
2023-05-07T13:26:26.723Z,100864.41
2023-05-07T13:28:58.159Z,100853.44
2023-05-07T13:31:28.821Z,100855.50
2023-05-07T13:33:59.278Z,100853.44
2023-05-07T13:36:34.505Z,100858.31
2023-05-07T13:39:04.877Z,100865.53
2023-05-07T13:41:35.314Z,100861.88
2023-05-07T13:44:06.034Z,100867.13
2023-05-07T13:46:36.628Z,100872.00
2023-05-07T13:49:06.976Z,100876.06
2023-05-07T13:51:38.785Z,100872.78
2023-05-07T13:54:09.526Z,100875.19
2023-05-07T13:56:40.139Z,100871.13
2023-05-07T13:59:10.611Z,100865.88
2023-05-07T14:01:41.299Z,100873.97
2023-05-07T14:04:12.096Z,100869.91
2023-05-07T14:06:45.008Z,100866.66
2023-05-07T14:09:15.575Z,100871.09
2023-05-07T14:11:46.193Z,100876.34
2023-05-07T14:14:17.290Z,100874.28
2023-05-07T14:16:49.416Z,100877.50
2023-05-07T14:19:20.657Z,100874.25
2023-05-07T14:21:53.380Z,100871.81
2023-05-07T14:24:37.079Z,100875.03
2023-05-07T14:27:08.733Z,100881.50
2023-05-07T14:29:38.679Z,100866.91
2023-05-07T14:32:09.433Z,100877.41
2023-05-07T14:34:39.939Z,100874.56
2023-05-07T14:37:12.446Z,100868.91
2023-05-07T14:39:42.935Z,100875.75
2023-05-07T14:42:13.866Z,100877.38
2023-05-07T14:44:46.199Z,100872.13
2023-05-07T14:47:19.926Z,100873.69
2023-05-07T14:49:50.952Z,100876.91
2023-05-07T14:52:22.900Z,100874.50
2023-05-07T14:54:52.961Z,100875.69
2023-05-07T14:57:23.598Z,100878.06
2023-05-07T14:59:53.991Z,100881.31
2023-05-07T15:02:24.654Z,100876.84
2023-05-07T15:04:55.222Z,100885.31
2023-05-07T15:07:27.828Z,100880.41
2023-05-07T15:09:58.851Z,100887.69
2023-05-07T15:12:29.222Z,100886.44
2023-05-07T15:14:59.720Z,100886.03
2023-05-07T15:17:30.255Z,100881.94
2023-05-07T15:20:00.945Z,100884.38
2023-05-07T15:22:33.838Z,100890.41
2023-05-07T15:25:03.889Z,100890.81
2023-05-07T15:27:34.447Z,100892.00
2023-05-07T15:30:05.229Z,100890.38
2023-05-07T15:32:35.829Z,100889.59
2023-05-07T15:35:06.569Z,100892.78
2023-05-07T15:37:38.997Z,100891.97
2023-05-07T15:40:12.037Z,100898.03
2023-05-07T15:42:42.100Z,100900.81
2023-05-07T15:45:14.218Z,100905.66
2023-05-07T15:47:44.967Z,100903.63
2023-05-07T15:50:15.224Z,100902.38
2023-05-07T15:52:49.573Z,100905.22
2023-05-07T15:55:19.996Z,100901.16
2023-05-07T15:57:50.122Z,100903.16
2023-05-07T16:00:21.322Z,100898.28
2023-05-07T16:02:52.047Z,100906.78
2023-05-07T16:05:22.723Z,100908.34
2023-05-07T16:07:54.940Z,100909.53
2023-05-07T16:10:25.842Z,100904.28
2023-05-07T16:12:56.249Z,100903.84
2023-05-07T16:15:26.862Z,100913.53
2023-05-07T16:17:58.543Z,100911.09
2023-05-07T16:20:31.960Z,100913.50
2023-05-07T16:23:04.489Z,100911.03
2023-05-07T16:25:34.888Z,100911.44
2023-05-07T16:28:04.664Z,100904.94
2023-05-07T16:30:35.179Z,100908.19
2023-05-07T16:33:05.795Z,100908.53
2023-05-07T16:35:36.054Z,100913.41
2023-05-07T16:38:10.684Z,100907.75
2023-05-07T16:40:42.424Z,100915.00
2023-05-07T16:43:14.134Z,100917.81
2023-05-07T16:45:44.773Z,100912.94
2023-05-07T16:48:15.131Z,100917.38
2023-05-07T16:50:45.855Z,100903.66
2023-05-07T16:53:17.768Z,100910.50
2023-05-07T16:55:48.071Z,100914.53
2023-05-07T16:58:18.581Z,100919.34
2023-05-07T17:00:50.946Z,100918.94
2023-05-07T17:03:21.838Z,100922.16
2023-05-07T17:05:52.694Z,100924.53
2023-05-07T17:08:24.856Z,100929.00
2023-05-07T17:10:54.854Z,100930.59
2023-05-07T17:13:25.728Z,100933.41
2023-05-07T17:15:56.134Z,100930.16
2023-05-07T17:18:26.627Z,100928.53
2023-05-07T17:20:57.151Z,100928.91
2023-05-07T17:23:30.616Z,100927.28
2023-05-07T17:26:01.146Z,100927.69
2023-05-07T17:28:32.152Z,100930.88
2023-05-07T17:31:02.593Z,100932.91
2023-05-07T17:33:33.084Z,100921.16
2023-05-07T17:36:04.078Z,100928.84
2023-05-07T17:38:36.633Z,100929.19
2023-05-07T17:41:07.042Z,100930.41
2023-05-07T17:43:36.726Z,100923.16
2023-05-07T17:46:06.385Z,100916.66
2023-05-07T17:48:36.132Z,100919.88
2023-05-07T17:51:06.937Z,100915.41
2023-05-07T17:53:38.954Z,100914.59
2023-05-07T17:56:09.372Z,100917.00
2023-05-07T17:58:56.179Z,100921.03
2023-05-07T18:01:29.389Z,100916.94
2023-05-07T18:03:59.886Z,100931.06
2023-05-07T18:06:30.728Z,100920.16
2023-05-07T18:09:02.764Z,100919.38
2023-05-07T18:11:33.912Z,100917.72
2023-05-07T18:14:03.779Z,100926.56
2023-05-07T18:16:34.625Z,100925.78
2023-05-07T18:19:06.212Z,100935.44
2023-05-07T18:21:36.363Z,100943.50
2023-05-07T18:24:09.257Z,100939.88
2023-05-07T18:26:39.678Z,100942.69
2023-05-07T18:29:10.025Z,100946.72
2023-05-07T18:31:40.580Z,100939.81
2023-05-07T18:34:11.008Z,100959.59
2023-05-07T18:36:41.617Z,100945.81
2023-05-07T18:39:13.666Z,100948.63
2023-05-07T18:41:45.538Z,100951.84
2023-05-07T18:44:15.708Z,100945.41
2023-05-07T18:46:48.179Z,100959.88
2023-05-07T18:49:18.189Z,100957.06
2023-05-07T18:51:48.450Z,100954.25
2023-05-07T18:54:21.072Z,100951.41
2023-05-07T18:56:52.025Z,100954.63
2023-05-07T18:59:22.883Z,100953.81
2023-05-07T19:01:53.435Z,100955.03
2023-05-07T19:04:24.923Z,100950.56
2023-05-07T19:06:55.454Z,100953.41
2023-05-07T19:09:27.994Z,100950.94
2023-05-07T19:11:59.227Z,100957.78
2023-05-07T19:14:29.534Z,100949.69
2023-05-07T19:16:59.217Z,100958.16
2023-05-07T19:19:30.044Z,100952.91
2023-05-07T19:22:00.188Z,100958.56
2023-05-07T19:24:33.588Z,100956.09
2023-05-07T19:27:04.022Z,100956.47
2023-05-07T19:29:34.465Z,100952.03
2023-05-07T19:32:05.240Z,100967.00
2023-05-07T19:34:36.206Z,100959.69
2023-05-07T19:37:06.857Z,100963.72
2023-05-07T19:39:38.677Z,100963.72
2023-05-07T19:42:08.705Z,100962.88
2023-05-07T19:44:38.847Z,100968.94
2023-05-07T19:47:09.676Z,100964.47
2023-05-07T19:49:40.390Z,100970.53
2023-05-07T19:52:10.761Z,100972.50
2023-05-07T19:54:43.036Z,100968.88
2023-05-07T19:57:13.432Z,100968.06
2023-05-07T19:59:43.482Z,100970.06
2023-05-07T20:02:14.440Z,100962.00
2023-05-07T20:04:44.599Z,100969.63
2023-05-07T20:07:15.093Z,100970.03
2023-05-07T20:09:47.468Z,100961.91
2023-05-07T20:12:18.450Z,100961.91
2023-05-07T20:14:48.258Z,100962.31
2023-05-07T20:17:20.048Z,100967.94
2023-05-07T20:19:50.088Z,100968.34
2023-05-07T20:22:20.257Z,100966.72
2023-05-07T20:24:52.256Z,100971.53
2023-05-07T20:27:25.188Z,100964.63
2023-05-07T20:29:56.133Z,100970.28
2023-05-07T20:32:26.976Z,100969.47
2023-05-07T20:34:57.189Z,100966.22
2023-05-07T20:37:27.778Z,100964.19
2023-05-07T20:39:59.779Z,100966.22
2023-05-07T20:42:30.285Z,100966.59
2023-05-07T20:45:02.153Z,100964.97
2023-05-07T20:47:35.127Z,100961.31
2023-05-07T20:50:05.383Z,100966.16
2023-05-07T20:52:35.729Z,100967.34
2023-05-07T20:55:09.501Z,100963.69
2023-05-07T20:57:40.296Z,100970.53
2023-05-07T21:00:13.026Z,100962.44
2023-05-07T21:02:43.630Z,100959.63
2023-05-07T21:05:14.224Z,100965.66
2023-05-07T21:07:44.496Z,100963.19
2023-05-07T21:10:16.288Z,100966.84
2023-05-07T21:12:46.280Z,100960.75
2023-05-07T21:15:16.243Z,100959.97
2023-05-07T21:17:46.604Z,100953.47
2023-05-07T21:20:17.116Z,100961.16
2023-05-07T21:22:46.985Z,100953.44
2023-05-07T21:25:25.566Z,100951.78
2023-05-07T21:27:55.378Z,100949.69
2023-05-07T21:30:26.045Z,100949.28
2023-05-07T21:32:56.581Z,100953.28
2023-05-07T21:35:26.952Z,100948.00
2023-05-07T21:37:56.909Z,100947.19
2023-05-07T21:40:28.467Z,100938.72
2023-05-07T21:42:58.591Z,100941.94
2023-05-07T21:45:29.014Z,100943.13
2023-05-07T21:48:00.144Z,100947.94
2023-05-07T21:50:30.650Z,100944.25
2023-05-07T21:53:00.685Z,100940.16
2023-05-07T21:55:33.458Z,100938.91
2023-05-07T21:58:06.020Z,100943.72
2023-05-07T22:00:36.419Z,100944.47
2023-05-07T22:03:06.205Z,100942.81
2023-05-07T22:05:36.246Z,100938.38
2023-05-07T22:08:07.547Z,100938.38
2023-05-07T22:10:40.035Z,100926.28
2023-05-07T22:13:10.269Z,100929.91
2023-05-07T22:15:49.594Z,100927.47
2023-05-07T22:18:26.917Z,100924.63
2023-05-07T22:20:56.777Z,100926.28
2023-05-07T22:23:27.141Z,100926.28
2023-05-07T22:25:59.466Z,100921.44
2023-05-07T22:28:29.797Z,100925.44
2023-05-07T22:31:00.223Z,100924.25
2023-05-07T22:33:30.995Z,100920.63
2023-05-07T22:36:01.354Z,100920.63
2023-05-07T22:38:31.510Z,100912.50
2023-05-07T22:41:03.681Z,100919.00
2023-05-07T22:43:34.699Z,100915.34
2023-05-07T22:46:05.276Z,100919.34
2023-05-07T22:48:36.097Z,100918.56
2023-05-07T22:51:06.786Z,100915.28
2023-05-07T22:53:36.710Z,100931.41
2023-05-07T22:56:11.123Z,100929.41
2023-05-07T22:58:41.873Z,100928.59
2023-05-07T23:01:16.494Z,100929.78
2023-05-07T23:03:46.946Z,100927.31
2023-05-07T23:06:17.254Z,100922.06
2023-05-07T23:08:50.473Z,100924.06
2023-05-07T23:11:23.079Z,100921.25
2023-05-07T23:13:53.511Z,100917.16
2023-05-07T23:16:23.671Z,100920.38
2023-05-07T23:18:54.070Z,100913.47
2023-05-07T23:21:25.006Z,100913.41
2023-05-07T23:23:55.519Z,100900.03
2023-05-07T23:26:30.066Z,100905.63
2023-05-07T23:29:00.494Z,100899.94
2023-05-07T23:31:31.451Z,100905.94
2023-05-07T23:34:01.254Z,100903.84
2023-05-07T23:36:31.786Z,100903.41
2023-05-07T23:39:01.711Z,100902.50
2023-05-07T23:41:33.745Z,100899.25
2023-05-07T23:44:04.198Z,100894.38
2023-05-07T23:46:34.263Z,100893.94
2023-05-07T23:49:04.190Z,100895.13
2023-05-07T23:51:34.320Z,100898.31
2023-05-07T23:54:04.546Z,100905.16
2023-05-07T23:56:36.329Z,100905.16
2023-05-07T23:59:06.703Z,100899.06
